sensor_id;sensor_type;location;lat;lon;timestamp;P1;durP1;ratioP1;P2;durP2;ratioP2
8419;SDS011;4247;48.550;8.822;2023-11-18T00:01:59;5.37;;;2.27;;
8419;SDS011;4247;48.550;8.822;2023-11-18T00:04:26;2.30;;;2.07;;
8419;SDS011;4247;48.550;8.822;2023-11-18T00:06:52;2.20;;;2.00;;
8419;SDS011;4247;48.550;8.822;2023-11-18T00:09:19;8.60;;;1.40;;
8419;SDS011;4247;48.550;8.822;2023-11-18T00:11:47;1.93;;;1.67;;
8419;SDS011;4247;48.550;8.822;2023-11-18T00:14:15;0.80;;;0.80;;
8419;SDS011;4247;48.550;8.822;2023-11-18T00:16:43;3.27;;;1.20;;
8419;SDS011;4247;48.550;8.822;2023-11-18T00:19:09;1.47;;;1.10;;
8419;SDS011;4247;48.550;8.822;2023-11-18T00:21:36;1.23;;;0.83;;
8419;SDS011;4247;48.550;8.822;2023-11-18T00:24:03;2.60;;;1.40;;
8419;SDS011;4247;48.550;8.822;2023-11-18T00:26:33;1.63;;;1.00;;
8419;SDS011;4247;48.550;8.822;2023-11-18T00:28:59;1.10;;;1.00;;
8419;SDS011;4247;48.550;8.822;2023-11-18T00:31:27;1.47;;;0.93;;
8419;SDS011;4247;48.550;8.822;2023-11-18T00:33:55;1.17;;;0.90;;
8419;SDS011;4247;48.550;8.822;2023-11-18T00:36:22;2.03;;;1.07;;
8419;SDS011;4247;48.550;8.822;2023-11-18T00:38:48;1.27;;;1.00;;
8419;SDS011;4247;48.550;8.822;2023-11-18T00:41:15;1.17;;;0.80;;
8419;SDS011;4247;48.550;8.822;2023-11-18T00:43:42;1.30;;;1.30;;
8419;SDS011;4247;48.550;8.822;2023-11-18T00:46:09;1.50;;;1.40;;
8419;SDS011;4247;48.550;8.822;2023-11-18T00:48:37;2.73;;;1.13;;
8419;SDS011;4247;48.550;8.822;2023-11-18T00:51:05;1.60;;;1.50;;
8419;SDS011;4247;48.550;8.822;2023-11-18T00:53:32;1.07;;;1.07;;
8419;SDS011;4247;48.550;8.822;2023-11-18T00:55:59;1.63;;;1.03;;
8419;SDS011;4247;48.550;8.822;2023-11-18T00:58:26;0.80;;;0.80;;
8419;SDS011;4247;48.550;8.822;2023-11-18T01:00:53;0.80;;;0.80;;
8419;SDS011;4247;48.550;8.822;2023-11-18T01:03:20;0.70;;;0.70;;
8419;SDS011;4247;48.550;8.822;2023-11-18T01:05:48;0.73;;;0.67;;
8419;SDS011;4247;48.550;8.822;2023-11-18T01:08:15;0.63;;;0.63;;
8419;SDS011;4247;48.550;8.822;2023-11-18T01:10:42;0.80;;;0.80;;
8419;SDS011;4247;48.550;8.822;2023-11-18T01:13:09;1.00;;;0.90;;
8419;SDS011;4247;48.550;8.822;2023-11-18T01:15:35;1.50;;;0.77;;
8419;SDS011;4247;48.550;8.822;2023-11-18T01:18:02;2.67;;;1.10;;
8419;SDS011;4247;48.550;8.822;2023-11-18T01:20:29;1.10;;;0.93;;
8419;SDS011;4247;48.550;8.822;2023-11-18T01:22:57;1.00;;;1.00;;
8419;SDS011;4247;48.550;8.822;2023-11-18T01:25:24;1.83;;;1.60;;
8419;SDS011;4247;48.550;8.822;2023-11-18T01:27:52;2.30;;;0.93;;
8419;SDS011;4247;48.550;8.822;2023-11-18T01:30:18;1.93;;;1.17;;
8419;SDS011;4247;48.550;8.822;2023-11-18T01:32:45;4.90;;;3.27;;
8419;SDS011;4247;48.550;8.822;2023-11-18T01:35:12;3.73;;;2.77;;
8419;SDS011;4247;48.550;8.822;2023-11-18T01:37:38;3.97;;;1.90;;
8419;SDS011;4247;48.550;8.822;2023-11-18T01:40:07;3.97;;;0.87;;
8419;SDS011;4247;48.550;8.822;2023-11-18T01:42:37;1.00;;;1.00;;
8419;SDS011;4247;48.550;8.822;2023-11-18T01:45:04;0.60;;;0.60;;
8419;SDS011;4247;48.550;8.822;2023-11-18T01:47:36;0.93;;;0.70;;
8419;SDS011;4247;48.550;8.822;2023-11-18T01:50:04;0.67;;;0.67;;
8419;SDS011;4247;48.550;8.822;2023-11-18T01:52:33;0.63;;;0.63;;
8419;SDS011;4247;48.550;8.822;2023-11-18T01:55:01;0.80;;;0.50;;
8419;SDS011;4247;48.550;8.822;2023-11-18T01:57:32;1.27;;;0.93;;
8419;SDS011;4247;48.550;8.822;2023-11-18T02:00:00;0.70;;;0.70;;
8419;SDS011;4247;48.550;8.822;2023-11-18T02:02:31;2.53;;;0.80;;
8419;SDS011;4247;48.550;8.822;2023-11-18T02:04:57;1.60;;;0.70;;
8419;SDS011;4247;48.550;8.822;2023-11-18T02:07:26;1.00;;;0.90;;
8419;SDS011;4247;48.550;8.822;2023-11-18T02:09:53;0.80;;;0.80;;
8419;SDS011;4247;48.550;8.822;2023-11-18T02:12:21;1.67;;;0.60;;
8419;SDS011;4247;48.550;8.822;2023-11-18T02:14:57;0.60;;;0.60;;
8419;SDS011;4247;48.550;8.822;2023-11-18T02:17:25;0.80;;;0.80;;
8419;SDS011;4247;48.550;8.822;2023-11-18T02:19:54;0.77;;;0.77;;
8419;SDS011;4247;48.550;8.822;2023-11-18T02:22:23;0.80;;;0.80;;
8419;SDS011;4247;48.550;8.822;2023-11-18T02:24:51;2.83;;;0.60;;
8419;SDS011;4247;48.550;8.822;2023-11-18T02:27:19;0.73;;;0.73;;
8419;SDS011;4247;48.550;8.822;2023-11-18T02:29:47;0.70;;;0.63;;
8419;SDS011;4247;48.550;8.822;2023-11-18T02:32:18;1.20;;;1.03;;
8419;SDS011;4247;48.550;8.822;2023-11-18T02:34:50;3.90;;;0.80;;
8419;SDS011;4247;48.550;8.822;2023-11-18T02:37:23;0.83;;;0.80;;
8419;SDS011;4247;48.550;8.822;2023-11-18T02:39:52;0.70;;;0.70;;
8419;SDS011;4247;48.550;8.822;2023-11-18T02:42:23;0.70;;;0.70;;
8419;SDS011;4247;48.550;8.822;2023-11-18T02:44:50;0.70;;;0.70;;
8419;SDS011;4247;48.550;8.822;2023-11-18T02:47:24;1.30;;;1.20;;
8419;SDS011;4247;48.550;8.822;2023-11-18T02:49:53;1.10;;;1.00;;
8419;SDS011;4247;48.550;8.822;2023-11-18T02:52:21;1.00;;;0.90;;
8419;SDS011;4247;48.550;8.822;2023-11-18T02:54:48;0.80;;;0.80;;
8419;SDS011;4247;48.550;8.822;2023-11-18T02:57:15;1.67;;;0.63;;
8419;SDS011;4247;48.550;8.822;2023-11-18T02:59:43;1.87;;;0.70;;
8419;SDS011;4247;48.550;8.822;2023-11-18T03:02:12;1.27;;;0.93;;
8419;SDS011;4247;48.550;8.822;2023-11-18T03:04:39;1.30;;;1.20;;
8419;SDS011;4247;48.550;8.822;2023-11-18T03:07:07;0.90;;;0.70;;
8419;SDS011;4247;48.550;8.822;2023-11-18T03:09:34;0.93;;;0.80;;
8419;SDS011;4247;48.550;8.822;2023-11-18T03:12:03;3.67;;;1.03;;
8419;SDS011;4247;48.550;8.822;2023-11-18T03:14:32;2.67;;;1.53;;
8419;SDS011;4247;48.550;8.822;2023-11-18T03:17:01;1.50;;;1.40;;
8419;SDS011;4247;48.550;8.822;2023-11-18T03:19:31;3.27;;;2.50;;
8419;SDS011;4247;48.550;8.822;2023-11-18T03:21:58;3.20;;;2.87;;
8419;SDS011;4247;48.550;8.822;2023-11-18T03:24:25;4.20;;;2.27;;
8419;SDS011;4247;48.550;8.822;2023-11-18T03:26:53;4.17;;;2.20;;
8419;SDS011;4247;48.550;8.822;2023-11-18T03:29:20;2.60;;;1.80;;
8419;SDS011;4247;48.550;8.822;2023-11-18T03:31:47;3.50;;;1.77;;
8419;SDS011;4247;48.550;8.822;2023-11-18T03:34:15;2.37;;;1.60;;
8419;SDS011;4247;48.550;8.822;2023-11-18T03:36:44;2.77;;;1.63;;
8419;SDS011;4247;48.550;8.822;2023-11-18T03:39:12;1.00;;;1.00;;
8419;SDS011;4247;48.550;8.822;2023-11-18T03:41:39;1.67;;;1.57;;
8419;SDS011;4247;48.550;8.822;2023-11-18T03:44:09;1.17;;;1.07;;
8419;SDS011;4247;48.550;8.822;2023-11-18T03:46:36;5.50;;;1.30;;
8419;SDS011;4247;48.550;8.822;2023-11-18T03:49:02;1.23;;;1.07;;
8419;SDS011;4247;48.550;8.822;2023-11-18T03:51:31;1.67;;;1.57;;
8419;SDS011;4247;48.550;8.822;2023-11-18T03:53:57;1.37;;;1.20;;
8419;SDS011;4247;48.550;8.822;2023-11-18T03:56:24;1.57;;;1.27;;
8419;SDS011;4247;48.550;8.822;2023-11-18T03:58:51;1.33;;;1.20;;
8419;SDS011;4247;48.550;8.822;2023-11-18T04:01:21;1.40;;;1.30;;
8419;SDS011;4247;48.550;8.822;2023-11-18T04:03:51;1.60;;;1.50;;
8419;SDS011;4247;48.550;8.822;2023-11-18T04:06:19;3.07;;;1.47;;
8419;SDS011;4247;48.550;8.822;2023-11-18T04:08:48;1.73;;;1.57;;
8419;SDS011;4247;48.550;8.822;2023-11-18T04:11:14;1.83;;;1.50;;
8419;SDS011;4247;48.550;8.822;2023-11-18T04:13:41;1.60;;;1.50;;
8419;SDS011;4247;48.550;8.822;2023-11-18T04:16:09;1.30;;;1.10;;
8419;SDS011;4247;48.550;8.822;2023-11-18T04:18:37;1.00;;;1.00;;
8419;SDS011;4247;48.550;8.822;2023-11-18T04:21:05;1.00;;;0.90;;
8419;SDS011;4247;48.550;8.822;2023-11-18T04:23:33;1.50;;;1.40;;
8419;SDS011;4247;48.550;8.822;2023-11-18T04:26:01;2.30;;;1.10;;
8419;SDS011;4247;48.550;8.822;2023-11-18T04:28:28;3.77;;;1.40;;
8419;SDS011;4247;48.550;8.822;2023-11-18T04:30:55;1.27;;;1.17;;
8419;SDS011;4247;48.550;8.822;2023-11-18T04:33:22;5.53;;;1.30;;
8419;SDS011;4247;48.550;8.822;2023-11-18T04:35:49;1.27;;;1.17;;
8419;SDS011;4247;48.550;8.822;2023-11-18T04:38:16;1.40;;;1.30;;
8419;SDS011;4247;48.550;8.822;2023-11-18T04:40:43;1.00;;;1.00;;
8419;SDS011;4247;48.550;8.822;2023-11-18T04:43:12;0.83;;;0.83;;
8419;SDS011;4247;48.550;8.822;2023-11-18T04:45:39;0.90;;;0.90;;
8419;SDS011;4247;48.550;8.822;2023-11-18T04:48:05;1.27;;;0.93;;
8419;SDS011;4247;48.550;8.822;2023-11-18T04:50:32;4.00;;;1.10;;
8419;SDS011;4247;48.550;8.822;2023-11-18T04:52:59;1.37;;;1.23;;
8419;SDS011;4247;48.550;8.822;2023-11-18T04:55:27;1.40;;;1.30;;
8419;SDS011;4247;48.550;8.822;2023-11-18T04:57:54;1.83;;;1.43;;
8419;SDS011;4247;48.550;8.822;2023-11-18T05:00:22;1.33;;;1.23;;
8419;SDS011;4247;48.550;8.822;2023-11-18T05:02:49;2.03;;;1.77;;
8419;SDS011;4247;48.550;8.822;2023-11-18T05:05:16;1.50;;;1.40;;
8419;SDS011;4247;48.550;8.822;2023-11-18T05:07:43;2.20;;;1.87;;
8419;SDS011;4247;48.550;8.822;2023-11-18T05:10:10;1.93;;;1.77;;
8419;SDS011;4247;48.550;8.822;2023-11-18T05:12:37;1.50;;;1.40;;
8419;SDS011;4247;48.550;8.822;2023-11-18T05:15:05;2.30;;;2.10;;
8419;SDS011;4247;48.550;8.822;2023-11-18T05:17:35;2.40;;;1.90;;
8419;SDS011;4247;48.550;8.822;2023-11-18T05:20:01;1.90;;;1.80;;
8419;SDS011;4247;48.550;8.822;2023-11-18T05:22:29;2.27;;;1.83;;
8419;SDS011;4247;48.550;8.822;2023-11-18T05:24:56;1.83;;;1.73;;
8419;SDS011;4247;48.550;8.822;2023-11-18T05:27:22;2.80;;;1.67;;
8419;SDS011;4247;48.550;8.822;2023-11-18T05:29:50;2.27;;;1.97;;
8419;SDS011;4247;48.550;8.822;2023-11-18T05:32:19;2.50;;;1.70;;
8419;SDS011;4247;48.550;8.822;2023-11-18T05:34:49;4.50;;;2.50;;
8419;SDS011;4247;48.550;8.822;2023-11-18T05:37:18;3.17;;;2.87;;
8419;SDS011;4247;48.550;8.822;2023-11-18T05:39:45;5.50;;;2.97;;
8419;SDS011;4247;48.550;8.822;2023-11-18T05:42:14;4.67;;;2.90;;
8419;SDS011;4247;48.550;8.822;2023-11-18T05:44:41;7.17;;;3.67;;
8419;SDS011;4247;48.550;8.822;2023-11-18T05:47:08;4.60;;;4.20;;
8419;SDS011;4247;48.550;8.822;2023-11-18T05:49:36;4.17;;;3.77;;
8419;SDS011;4247;48.550;8.822;2023-11-18T05:52:05;3.93;;;3.23;;
8419;SDS011;4247;48.550;8.822;2023-11-18T05:54:31;5.60;;;4.13;;
8419;SDS011;4247;48.550;8.822;2023-11-18T05:56:58;4.83;;;3.40;;
8419;SDS011;4247;48.550;8.822;2023-11-18T05:59:25;5.67;;;4.77;;
8419;SDS011;4247;48.550;8.822;2023-11-18T06:01:52;7.50;;;5.13;;
8419;SDS011;4247;48.550;8.822;2023-11-18T06:04:22;11.13;;;5.20;;
8419;SDS011;4247;48.550;8.822;2023-11-18T06:06:48;7.20;;;4.43;;
8419;SDS011;4247;48.550;8.822;2023-11-18T06:09:17;5.63;;;4.47;;
8419;SDS011;4247;48.550;8.822;2023-11-18T06:11:46;7.47;;;4.70;;
8419;SDS011;4247;48.550;8.822;2023-11-18T06:14:14;5.27;;;3.60;;
8419;SDS011;4247;48.550;8.822;2023-11-18T06:16:41;5.40;;;3.90;;
8419;SDS011;4247;48.550;8.822;2023-11-18T06:19:08;4.03;;;3.03;;
8419;SDS011;4247;48.550;8.822;2023-11-18T06:21:35;5.00;;;3.17;;
8419;SDS011;4247;48.550;8.822;2023-11-18T06:24:02;5.60;;;3.73;;
8419;SDS011;4247;48.550;8.822;2023-11-18T06:26:32;6.87;;;3.20;;
8419;SDS011;4247;48.550;8.822;2023-11-18T06:29:01;5.17;;;3.70;;
8419;SDS011;4247;48.550;8.822;2023-11-18T06:31:29;4.57;;;3.60;;
8419;SDS011;4247;48.550;8.822;2023-11-18T06:33:56;3.90;;;3.40;;
8419;SDS011;4247;48.550;8.822;2023-11-18T06:36:22;4.20;;;3.43;;
8419;SDS011;4247;48.550;8.822;2023-11-18T06:38:51;3.00;;;2.80;;
8419;SDS011;4247;48.550;8.822;2023-11-18T06:41:19;3.43;;;3.13;;
8419;SDS011;4247;48.550;8.822;2023-11-18T06:43:49;4.13;;;3.73;;
8419;SDS011;4247;48.550;8.822;2023-11-18T06:46:22;4.43;;;3.90;;
8419;SDS011;4247;48.550;8.822;2023-11-18T06:48:50;3.50;;;3.20;;
8419;SDS011;4247;48.550;8.822;2023-11-18T06:51:19;4.00;;;3.60;;
8419;SDS011;4247;48.550;8.822;2023-11-18T06:53:48;4.80;;;4.00;;
8419;SDS011;4247;48.550;8.822;2023-11-18T06:56:15;5.60;;;3.67;;
8419;SDS011;4247;48.550;8.822;2023-11-18T06:58:42;7.07;;;4.00;;
8419;SDS011;4247;48.550;8.822;2023-11-18T07:01:11;4.53;;;3.73;;
8419;SDS011;4247;48.550;8.822;2023-11-18T07:03:39;5.37;;;3.80;;
8419;SDS011;4247;48.550;8.822;2023-11-18T07:06:07;6.20;;;4.30;;
8419;SDS011;4247;48.550;8.822;2023-11-18T07:08:34;7.10;;;4.07;;
8419;SDS011;4247;48.550;8.822;2023-11-18T07:11:01;4.07;;;3.67;;
8419;SDS011;4247;48.550;8.822;2023-11-18T07:13:28;5.10;;;3.97;;
8419;SDS011;4247;48.550;8.822;2023-11-18T07:15:56;4.67;;;3.23;;
8419;SDS011;4247;48.550;8.822;2023-11-18T07:18:24;4.10;;;3.60;;
8419;SDS011;4247;48.550;8.822;2023-11-18T07:20:50;3.87;;;2.97;;
8419;SDS011;4247;48.550;8.822;2023-11-18T07:23:17;3.47;;;3.13;;
8419;SDS011;4247;48.550;8.822;2023-11-18T07:25:44;4.53;;;3.10;;
8419;SDS011;4247;48.550;8.822;2023-11-18T07:28:11;6.27;;;3.43;;
8419;SDS011;4247;48.550;8.822;2023-11-18T07:30:40;6.27;;;4.80;;
8419;SDS011;4247;48.550;8.822;2023-11-18T07:33:07;4.53;;;4.07;;
8419;SDS011;4247;48.550;8.822;2023-11-18T07:35:35;4.70;;;2.80;;
8419;SDS011;4247;48.550;8.822;2023-11-18T07:38:03;4.00;;;3.60;;
8419;SDS011;4247;48.550;8.822;2023-11-18T07:40:32;3.70;;;3.00;;
8419;SDS011;4247;48.550;8.822;2023-11-18T07:42:58;3.77;;;3.43;;
8419;SDS011;4247;48.550;8.822;2023-11-18T07:45:26;3.13;;;2.83;;
8419;SDS011;4247;48.550;8.822;2023-11-18T07:47:54;3.40;;;2.60;;
8419;SDS011;4247;48.550;8.822;2023-11-18T07:50:20;3.30;;;2.80;;
8419;SDS011;4247;48.550;8.822;2023-11-18T07:52:48;4.07;;;2.80;;
8419;SDS011;4247;48.550;8.822;2023-11-18T07:55:15;2.43;;;2.23;;
8419;SDS011;4247;48.550;8.822;2023-11-18T07:57:43;2.13;;;1.93;;
8419;SDS011;4247;48.550;8.822;2023-11-18T08:00:10;2.83;;;2.57;;
8419;SDS011;4247;48.550;8.822;2023-11-18T08:02:40;3.10;;;2.70;;
8419;SDS011;4247;48.550;8.822;2023-11-18T08:05:07;3.33;;;2.70;;
8419;SDS011;4247;48.550;8.822;2023-11-18T08:07:38;3.87;;;2.00;;
8419;SDS011;4247;48.550;8.822;2023-11-18T08:10:08;2.80;;;2.40;;
8419;SDS011;4247;48.550;8.822;2023-11-18T08:12:37;2.03;;;1.73;;
8419;SDS011;4247;48.550;8.822;2023-11-18T08:15:05;3.57;;;1.97;;
8419;SDS011;4247;48.550;8.822;2023-11-18T08:17:34;2.17;;;1.63;;
8419;SDS011;4247;48.550;8.822;2023-11-18T08:20:01;2.00;;;1.87;;
8419;SDS011;4247;48.550;8.822;2023-11-18T08:22:32;2.40;;;2.20;;
8419;SDS011;4247;48.550;8.822;2023-11-18T08:24:59;7.40;;;3.30;;
8419;SDS011;4247;48.550;8.822;2023-11-18T08:27:27;6.83;;;3.53;;
8419;SDS011;4247;48.550;8.822;2023-11-18T08:29:54;3.00;;;2.40;;
8419;SDS011;4247;48.550;8.822;2023-11-18T08:32:21;7.30;;;3.07;;
8419;SDS011;4247;48.550;8.822;2023-11-18T08:34:50;3.13;;;2.67;;
8419;SDS011;4247;48.550;8.822;2023-11-18T08:37:17;5.47;;;2.00;;
8419;SDS011;4247;48.550;8.822;2023-11-18T08:39:44;3.30;;;2.63;;
8419;SDS011;4247;48.550;8.822;2023-11-18T08:42:10;1.60;;;1.50;;
8419;SDS011;4247;48.550;8.822;2023-11-18T08:44:40;3.70;;;1.90;;
8419;SDS011;4247;48.550;8.822;2023-11-18T08:47:08;3.17;;;2.87;;
8419;SDS011;4247;48.550;8.822;2023-11-18T08:49:37;1.43;;;1.30;;
8419;SDS011;4247;48.550;8.822;2023-11-18T08:52:05;1.17;;;1.10;;
8419;SDS011;4247;48.550;8.822;2023-11-18T08:54:35;0.97;;;0.80;;
8419;SDS011;4247;48.550;8.822;2023-11-18T08:57:03;1.43;;;1.10;;
8419;SDS011;4247;48.550;8.822;2023-11-18T08:59:49;1.30;;;1.20;;
8419;SDS011;4247;48.550;8.822;2023-11-18T09:02:17;1.70;;;1.03;;
8419;SDS011;4247;48.550;8.822;2023-11-18T09:04:48;1.40;;;1.30;;
8419;SDS011;4247;48.550;8.822;2023-11-18T09:07:15;6.40;;;1.60;;
8419;SDS011;4247;48.550;8.822;2023-11-18T09:09:43;4.03;;;1.20;;
8419;SDS011;4247;48.550;8.822;2023-11-18T09:12:11;1.33;;;1.23;;
8419;SDS011;4247;48.550;8.822;2023-11-18T09:14:39;1.30;;;1.20;;
8419;SDS011;4247;48.550;8.822;2023-11-18T09:17:09;2.00;;;1.30;;
8419;SDS011;4247;48.550;8.822;2023-11-18T09:19:35;2.73;;;1.23;;
8419;SDS011;4247;48.550;8.822;2023-11-18T09:22:02;0.93;;;0.93;;
8419;SDS011;4247;48.550;8.822;2023-11-18T09:24:30;1.43;;;1.10;;
8419;SDS011;4247;48.550;8.822;2023-11-18T09:26:59;1.23;;;1.17;;
8419;SDS011;4247;48.550;8.822;2023-11-18T09:29:27;0.90;;;0.90;;
8419;SDS011;4247;48.550;8.822;2023-11-18T09:31:54;3.07;;;1.00;;
8419;SDS011;4247;48.550;8.822;2023-11-18T09:34:25;1.80;;;1.70;;
8419;SDS011;4247;48.550;8.822;2023-11-18T09:36:58;1.50;;;1.23;;
8419;SDS011;4247;48.550;8.822;2023-11-18T09:39:24;1.60;;;1.03;;
8419;SDS011;4247;48.550;8.822;2023-11-18T09:42:04;1.57;;;1.20;;
8419;SDS011;4247;48.550;8.822;2023-11-18T09:44:34;0.90;;;0.90;;
8419;SDS011;4247;48.550;8.822;2023-11-18T09:47:03;1.50;;;1.27;;
8419;SDS011;4247;48.550;8.822;2023-11-18T09:49:37;1.80;;;1.03;;
8419;SDS011;4247;48.550;8.822;2023-11-18T09:52:09;0.80;;;0.80;;
8419;SDS011;4247;48.550;8.822;2023-11-18T09:54:44;1.33;;;1.17;;
8419;SDS011;4247;48.550;8.822;2023-11-18T09:57:19;4.13;;;1.40;;
8419;SDS011;4247;48.550;8.822;2023-11-18T09:59:55;2.10;;;1.10;;
8419;SDS011;4247;48.550;8.822;2023-11-18T10:02:44;0.97;;;0.80;;
8419;SDS011;4247;48.550;8.822;2023-11-18T10:05:13;0.97;;;0.90;;
8419;SDS011;4247;48.550;8.822;2023-11-18T10:07:45;3.47;;;1.47;;
8419;SDS011;4247;48.550;8.822;2023-11-18T10:10:13;1.67;;;1.57;;
8419;SDS011;4247;48.550;8.822;2023-11-18T10:12:41;5.90;;;1.20;;
8419;SDS011;4247;48.550;8.822;2023-11-18T10:15:10;2.13;;;1.40;;
8419;SDS011;4247;48.550;8.822;2023-11-18T10:17:39;1.47;;;1.23;;
8419;SDS011;4247;48.550;8.822;2023-11-18T10:20:21;1.63;;;0.80;;
8419;SDS011;4247;48.550;8.822;2023-11-18T10:22:54;1.37;;;1.13;;
8419;SDS011;4247;48.550;8.822;2023-11-18T10:25:34;1.90;;;1.27;;
8419;SDS011;4247;48.550;8.822;2023-11-18T10:28:05;2.13;;;1.30;;
8419;SDS011;4247;48.550;8.822;2023-11-18T10:30:32;1.57;;;0.87;;
8419;SDS011;4247;48.550;8.822;2023-11-18T10:33:11;2.13;;;0.87;;
8419;SDS011;4247;48.550;8.822;2023-11-18T10:35:49;1.17;;;0.80;;
8419;SDS011;4247;48.550;8.822;2023-11-18T10:38:17;4.03;;;1.20;;
8419;SDS011;4247;48.550;8.822;2023-11-18T10:40:44;2.23;;;1.03;;
8419;SDS011;4247;48.550;8.822;2023-11-18T10:43:11;3.17;;;1.00;;
8419;SDS011;4247;48.550;8.822;2023-11-18T10:45:40;3.57;;;1.00;;
8419;SDS011;4247;48.550;8.822;2023-11-18T10:48:07;1.90;;;1.00;;
8419;SDS011;4247;48.550;8.822;2023-11-18T10:50:34;1.43;;;0.87;;
8419;SDS011;4247;48.550;8.822;2023-11-18T10:53:02;10.73;;;1.43;;
8419;SDS011;4247;48.550;8.822;2023-11-18T10:55:36;2.53;;;1.40;;
8419;SDS011;4247;48.550;8.822;2023-11-18T10:58:05;1.87;;;1.10;;
8419;SDS011;4247;48.550;8.822;2023-11-18T11:00:45;4.53;;;1.33;;
8419;SDS011;4247;48.550;8.822;2023-11-18T11:03:13;1.87;;;1.50;;
8419;SDS011;4247;48.550;8.822;2023-11-18T11:05:39;1.67;;;1.10;;
8419;SDS011;4247;48.550;8.822;2023-11-18T11:08:10;2.73;;;1.50;;
8419;SDS011;4247;48.550;8.822;2023-11-18T11:10:41;2.20;;;1.13;;
8419;SDS011;4247;48.550;8.822;2023-11-18T11:13:08;4.20;;;1.20;;
8419;SDS011;4247;48.550;8.822;2023-11-18T11:15:40;1.33;;;1.23;;
8419;SDS011;4247;48.550;8.822;2023-11-18T11:18:11;1.83;;;1.23;;
8419;SDS011;4247;48.550;8.822;2023-11-18T11:20:57;3.63;;;1.33;;
8419;SDS011;4247;48.550;8.822;2023-11-18T11:23:34;1.97;;;1.10;;
8419;SDS011;4247;48.550;8.822;2023-11-18T11:26:12;1.00;;;1.00;;
8419;SDS011;4247;48.550;8.822;2023-11-18T11:28:49;10.20;;;1.40;;
8419;SDS011;4247;48.550;8.822;2023-11-18T11:31:20;5.80;;;1.10;;
8419;SDS011;4247;48.550;8.822;2023-11-18T11:33:53;1.07;;;0.87;;
8419;SDS011;4247;48.550;8.822;2023-11-18T11:36:25;1.37;;;0.93;;
8419;SDS011;4247;48.550;8.822;2023-11-18T11:38:59;1.47;;;1.30;;
8419;SDS011;4247;48.550;8.822;2023-11-18T11:41:28;4.60;;;1.20;;
8419;SDS011;4247;48.550;8.822;2023-11-18T11:43:59;2.80;;;1.17;;
8419;SDS011;4247;48.550;8.822;2023-11-18T11:46:31;3.37;;;1.10;;
8419;SDS011;4247;48.550;8.822;2023-11-18T11:49:00;3.33;;;1.50;;
8419;SDS011;4247;48.550;8.822;2023-11-18T11:51:35;5.90;;;2.93;;
8419;SDS011;4247;48.550;8.822;2023-11-18T11:54:10;3.73;;;1.23;;
8419;SDS011;4247;48.550;8.822;2023-11-18T11:56:41;1.57;;;1.20;;
8419;SDS011;4247;48.550;8.822;2023-11-18T11:59:09;1.27;;;1.17;;
8419;SDS011;4247;48.550;8.822;2023-11-18T12:01:36;0.80;;;0.80;;
8419;SDS011;4247;48.550;8.822;2023-11-18T12:04:10;1.37;;;1.27;;
8419;SDS011;4247;48.550;8.822;2023-11-18T12:06:46;6.20;;;1.23;;
8419;SDS011;4247;48.550;8.822;2023-11-18T12:09:14;1.10;;;0.90;;
8419;SDS011;4247;48.550;8.822;2023-11-18T12:11:45;1.60;;;1.30;;
8419;SDS011;4247;48.550;8.822;2023-11-18T12:14:14;2.90;;;1.00;;
8419;SDS011;4247;48.550;8.822;2023-11-18T12:17:00;3.00;;;1.20;;
8419;SDS011;4247;48.550;8.822;2023-11-18T12:19:34;1.53;;;1.00;;
8419;SDS011;4247;48.550;8.822;2023-11-18T12:22:19;1.13;;;1.00;;
8419;SDS011;4247;48.550;8.822;2023-11-18T12:28:00;2.20;;;1.20;;
8419;SDS011;4247;48.550;8.822;2023-11-18T12:30:39;5.53;;;1.50;;
8419;SDS011;4247;48.550;8.822;2023-11-18T12:33:18;5.33;;;1.30;;
8419;SDS011;4247;48.550;8.822;2023-11-18T12:36:03;3.27;;;1.30;;
8419;SDS011;4247;48.550;8.822;2023-11-18T12:39:19;1.10;;;1.00;;
8419;SDS011;4247;48.550;8.822;2023-11-18T12:42:05;2.80;;;1.77;;
8419;SDS011;4247;48.550;8.822;2023-11-18T12:44:38;2.43;;;1.83;;
8419;SDS011;4247;48.550;8.822;2023-11-18T12:47:23;3.57;;;2.17;;
8419;SDS011;4247;48.550;8.822;2023-11-18T12:49:53;3.70;;;2.07;;
8419;SDS011;4247;48.550;8.822;2023-11-18T12:52:20;2.50;;;1.13;;
8419;SDS011;4247;48.550;8.822;2023-11-18T12:54:48;2.93;;;0.77;;
8419;SDS011;4247;48.550;8.822;2023-11-18T12:57:16;1.07;;;0.90;;
8419;SDS011;4247;48.550;8.822;2023-11-18T12:59:49;1.67;;;1.00;;
8419;SDS011;4247;48.550;8.822;2023-11-18T13:02:16;1.10;;;1.00;;
8419;SDS011;4247;48.550;8.822;2023-11-18T13:04:44;0.80;;;0.80;;
8419;SDS011;4247;48.550;8.822;2023-11-18T13:07:12;3.80;;;1.40;;
8419;SDS011;4247;48.550;8.822;2023-11-18T13:09:39;1.83;;;1.00;;
8419;SDS011;4247;48.550;8.822;2023-11-18T13:12:09;1.10;;;1.00;;
8419;SDS011;4247;48.550;8.822;2023-11-18T13:14:39;2.67;;;2.27;;
8419;SDS011;4247;48.550;8.822;2023-11-18T13:17:10;2.40;;;1.53;;
8419;SDS011;4247;48.550;8.822;2023-11-18T13:19:38;1.77;;;1.47;;
8419;SDS011;4247;48.550;8.822;2023-11-18T13:22:05;1.60;;;1.33;;
8419;SDS011;4247;48.550;8.822;2023-11-18T13:24:34;4.43;;;1.73;;
8419;SDS011;4247;48.550;8.822;2023-11-18T13:27:01;8.03;;;2.07;;
8419;SDS011;4247;48.550;8.822;2023-11-18T13:29:29;3.10;;;2.03;;
8419;SDS011;4247;48.550;8.822;2023-11-18T13:31:56;2.33;;;2.07;;
8419;SDS011;4247;48.550;8.822;2023-11-18T13:34:26;2.27;;;1.90;;
8419;SDS011;4247;48.550;8.822;2023-11-18T13:36:55;2.37;;;1.40;;
8419;SDS011;4247;48.550;8.822;2023-11-18T13:39:22;4.07;;;1.70;;
8419;SDS011;4247;48.550;8.822;2023-11-18T13:41:52;16.43;;;2.43;;
8419;SDS011;4247;48.550;8.822;2023-11-18T13:44:32;5.23;;;2.03;;
8419;SDS011;4247;48.550;8.822;2023-11-18T13:47:00;4.60;;;2.87;;
8419;SDS011;4247;48.550;8.822;2023-11-18T13:49:29;7.23;;;4.50;;
8419;SDS011;4247;48.550;8.822;2023-11-18T13:51:55;6.93;;;2.20;;
8419;SDS011;4247;48.550;8.822;2023-11-18T13:54:23;5.80;;;3.50;;
8419;SDS011;4247;48.550;8.822;2023-11-18T13:56:51;3.07;;;2.53;;
8419;SDS011;4247;48.550;8.822;2023-11-18T13:59:18;6.10;;;2.47;;
8419;SDS011;4247;48.550;8.822;2023-11-18T14:01:45;5.30;;;1.87;;
8419;SDS011;4247;48.550;8.822;2023-11-18T14:04:12;4.13;;;2.30;;
8419;SDS011;4247;48.550;8.822;2023-11-18T14:06:40;8.07;;;2.93;;
8419;SDS011;4247;48.550;8.822;2023-11-18T14:09:07;8.97;;;2.80;;
8419;SDS011;4247;48.550;8.822;2023-11-18T14:11:36;1.67;;;1.57;;
8419;SDS011;4247;48.550;8.822;2023-11-18T14:14:03;2.83;;;1.10;;
8419;SDS011;4247;48.550;8.822;2023-11-18T14:16:30;9.67;;;2.20;;
8419;SDS011;4247;48.550;8.822;2023-11-18T14:18:58;3.10;;;1.73;;
8419;SDS011;4247;48.550;8.822;2023-11-18T14:21:24;3.73;;;2.97;;
8419;SDS011;4247;48.550;8.822;2023-11-18T14:23:53;1.90;;;1.80;;
8419;SDS011;4247;48.550;8.822;2023-11-18T14:26:25;2.93;;;2.67;;
8419;SDS011;4247;48.550;8.822;2023-11-18T14:28:52;5.47;;;3.03;;
8419;SDS011;4247;48.550;8.822;2023-11-18T14:31:19;9.50;;;2.57;;
8419;SDS011;4247;48.550;8.822;2023-11-18T14:33:47;2.93;;;1.53;;
8419;SDS011;4247;48.550;8.822;2023-11-18T14:36:14;3.53;;;1.70;;
8419;SDS011;4247;48.550;8.822;2023-11-18T14:38:40;6.57;;;1.90;;
8419;SDS011;4247;48.550;8.822;2023-11-18T14:41:09;2.63;;;1.50;;
8419;SDS011;4247;48.550;8.822;2023-11-18T14:43:37;4.10;;;1.67;;
8419;SDS011;4247;48.550;8.822;2023-11-18T14:46:04;1.33;;;1.23;;
8419;SDS011;4247;48.550;8.822;2023-11-18T14:48:31;2.90;;;1.90;;
8419;SDS011;4247;48.550;8.822;2023-11-18T14:50:58;3.67;;;2.27;;
8419;SDS011;4247;48.550;8.822;2023-11-18T14:53:25;2.93;;;1.50;;
8419;SDS011;4247;48.550;8.822;2023-11-18T14:55:52;1.90;;;1.80;;
8419;SDS011;4247;48.550;8.822;2023-11-18T14:58:20;4.73;;;3.93;;
8419;SDS011;4247;48.550;8.822;2023-11-18T15:00:47;16.37;;;8.07;;
8419;SDS011;4247;48.550;8.822;2023-11-18T15:03:13;3.10;;;2.07;;
8419;SDS011;4247;48.550;8.822;2023-11-18T15:05:41;2.23;;;1.00;;
8419;SDS011;4247;48.550;8.822;2023-11-18T15:08:09;1.80;;;1.33;;
8419;SDS011;4247;48.550;8.822;2023-11-18T15:10:39;1.70;;;1.23;;
8419;SDS011;4247;48.550;8.822;2023-11-18T15:13:07;8.00;;;1.77;;
8419;SDS011;4247;48.550;8.822;2023-11-18T15:15:41;2.97;;;1.47;;
8419;SDS011;4247;48.550;8.822;2023-11-18T15:18:08;3.10;;;2.10;;
8419;SDS011;4247;48.550;8.822;2023-11-18T15:20:38;25.80;;;10.47;;
8419;SDS011;4247;48.550;8.822;2023-11-18T15:23:08;4.43;;;2.73;;
8419;SDS011;4247;48.550;8.822;2023-11-18T15:25:34;3.27;;;1.67;;
8419;SDS011;4247;48.550;8.822;2023-11-18T15:28:01;1.80;;;1.53;;
8419;SDS011;4247;48.550;8.822;2023-11-18T15:30:29;2.40;;;1.60;;